ESNX

Arvidsjaur Airport

Arvidsjaur, Sweden
METAR ESNX 191950Z AUTO 27005KT 9999 FEW042/// BKN054/// 09/07 Q0992
Observed Flight Rules
Jun-19 @ 19:50 UTC (21 minutes ago) Visual Flight Rules
Wind Visibility Clouds
270° at 5 knots 10,000+ meters
  • Few at 4,200' AGL
  • Broken at 5,400' AGL
Temperatures Readings
Current 9°C / 48°F
Dewpoint 7°C / 45°F
Humidity 87%
Altimeter 29.29" Hg
Pressure 992 hPa
Elevation 379
METAR ESNX 191950Z AUTO 27005KT 9999 FEW042/// BKN054/// 09/07 Q0992
Observed Flight Rules
Jun-19 @ 19:50 UTC
(21 minutes ago)
VFR
Wind Visibility
270° at 5 knots 10,000+ meters
Clouds
  • Few at 4,200' AGL
  • Broken at 5,400' AGL
Temperature Dewpoint
9°C / 48°F 7°C / 45°F
Humidity Altimeter Pressure
87% 29.29" Hg 992 hPa